createdAt,value
2018-07-27T00:00:06.289Z,0
2018-07-27T00:01:06.658Z,0
2018-07-27T00:02:06.855Z,0
2018-07-27T00:03:06.300Z,0
2018-07-27T00:04:06.300Z,0
2018-07-27T00:05:06.582Z,0
2018-07-27T00:06:06.618Z,0
2018-07-27T00:07:06.605Z,0
2018-07-27T00:08:06.831Z,0
2018-07-27T00:09:06.845Z,0
2018-07-27T00:10:06.593Z,0
2018-07-27T00:11:06.632Z,0
2018-07-27T00:12:06.339Z,0
2018-07-27T00:13:06.356Z,0
2018-07-27T00:14:06.379Z,0
2018-07-27T00:15:06.849Z,0
2018-07-27T00:16:06.636Z,0
2018-07-27T00:17:06.602Z,0
2018-07-27T00:18:06.889Z,0
2018-07-27T00:19:06.865Z,0
2018-07-27T00:20:06.367Z,0
2018-07-27T00:21:06.632Z,0
2018-07-27T00:22:06.343Z,0
2018-07-27T00:23:07.137Z,0
2018-07-27T00:24:07.134Z,0
2018-07-27T00:25:07.154Z,0
2018-07-27T00:26:06.647Z,0
2018-07-27T00:27:06.369Z,0
2018-07-27T00:28:07.134Z,0
2018-07-27T00:29:06.637Z,0
2018-07-27T00:30:06.702Z,0
2018-07-27T00:31:06.649Z,0
2018-07-27T00:32:07.183Z,0
2018-07-27T00:33:06.641Z,0
2018-07-27T00:34:07.065Z,0
2018-07-27T00:35:06.647Z,0
2018-07-27T00:36:06.146Z,0
2018-07-27T00:37:06.397Z,0
2018-07-27T00:38:06.450Z,0
2018-07-27T00:39:06.922Z,0
2018-07-27T00:40:06.930Z,0
2018-07-27T00:41:06.483Z,0
2018-07-27T00:42:06.417Z,0
2018-07-27T00:43:06.666Z,0
2018-07-27T00:44:06.931Z,0
2018-07-27T00:45:07.189Z,0
2018-07-27T00:46:06.971Z,0
2018-07-27T00:47:06.484Z,0
2018-07-27T00:48:06.687Z,0
2018-07-27T00:49:06.685Z,0
2018-07-27T00:50:06.687Z,0
2018-07-27T00:51:06.547Z,0
2018-07-27T00:52:06.950Z,0
2018-07-27T00:53:06.435Z,0
2018-07-27T00:54:07.227Z,0
2018-07-27T00:55:07.214Z,0
2018-07-27T00:56:06.772Z,0
2018-07-27T00:57:06.463Z,0
2018-07-27T00:58:06.967Z,0
2018-07-27T00:59:06.973Z,0
2018-07-27T01:00:06.714Z,0
2018-07-27T01:01:07.038Z,0
2018-07-27T01:02:07.263Z,0
2018-07-27T01:03:06.718Z,0
2018-07-27T01:04:06.725Z,0
2018-07-27T01:05:06.728Z,0
2018-07-27T01:06:07.244Z,0
2018-07-27T01:07:06.460Z,0
2018-07-27T01:08:06.480Z,0
2018-07-27T01:09:07.003Z,0
2018-07-27T01:10:06.483Z,0
2018-07-27T01:11:06.520Z,0
2018-07-27T01:12:06.741Z,0
2018-07-27T01:13:06.748Z,0
2018-07-27T01:14:06.770Z,0
2018-07-27T01:15:06.766Z,0
2018-07-27T01:16:06.294Z,0
2018-07-27T01:17:06.753Z,0
2018-07-27T01:18:06.521Z,0
2018-07-27T01:19:06.513Z,0
2018-07-27T01:20:06.757Z,0
2018-07-27T01:21:07.104Z,0
2018-07-27T01:22:06.812Z,0
2018-07-27T01:23:06.804Z,0
2018-07-27T01:24:06.260Z,0
2018-07-27T01:25:06.812Z,0
2018-07-27T01:26:06.834Z,0
2018-07-27T01:27:06.535Z,0
2018-07-27T01:28:06.813Z,0
2018-07-27T01:29:06.784Z,0
2018-07-27T01:30:06.792Z,0
2018-07-27T01:31:06.823Z,0
2018-07-27T01:32:07.044Z,0
2018-07-27T01:33:07.041Z,0
2018-07-27T01:34:06.833Z,0
2018-07-27T01:35:06.836Z,0
2018-07-27T01:36:07.150Z,0
2018-07-27T01:37:06.560Z,0
2018-07-27T01:38:06.827Z,0
2018-07-27T01:39:07.378Z,0
2018-07-27T01:40:07.104Z,0
2018-07-27T01:41:07.152Z,0
2018-07-27T01:42:06.823Z,0
2018-07-27T01:43:06.830Z,0
2018-07-27T01:44:06.555Z,0
2018-07-27T01:45:07.092Z,0
2018-07-27T01:46:07.121Z,0
2018-07-27T01:47:07.097Z,0
2018-07-27T01:48:07.109Z,0
2018-07-27T01:49:06.852Z,0
2018-07-27T01:50:07.102Z,0
2018-07-27T01:51:07.289Z,0
2018-07-27T01:52:06.856Z,0
2018-07-27T01:53:06.851Z,0
2018-07-27T01:54:07.391Z,0
2018-07-27T01:55:07.117Z,0
2018-07-27T01:56:06.859Z,0
2018-07-27T01:57:06.866Z,0
2018-07-27T01:58:07.122Z,0
2018-07-27T01:59:07.199Z,0
2018-07-27T02:00:06.874Z,0
2018-07-27T02:01:06.902Z,0
2018-07-27T02:02:06.859Z,0
2018-07-27T02:03:06.616Z,0
2018-07-27T02:04:07.128Z,0
2018-07-27T02:05:06.618Z,0
2018-07-27T02:06:07.683Z,0
2018-07-27T02:07:07.152Z,0
2018-07-27T02:08:07.154Z,0
2018-07-27T02:09:07.160Z,0
2018-07-27T02:10:07.458Z,0
2018-07-27T02:11:07.221Z,0
2018-07-27T02:12:07.253Z,0
2018-07-27T02:13:07.396Z,0
2018-07-27T02:14:07.165Z,0
2018-07-27T02:15:06.656Z,0
2018-07-27T02:16:07.243Z,0
2018-07-27T02:17:07.155Z,0
2018-07-27T02:18:07.196Z,0
2018-07-27T02:19:06.938Z,0
2018-07-27T02:20:07.507Z,0
2018-07-27T02:21:07.469Z,0
2018-07-27T02:22:06.391Z,0
2018-07-27T02:23:07.181Z,0
2018-07-27T02:24:07.175Z,0
2018-07-27T02:25:07.303Z,0
2018-07-27T02:26:06.968Z,0
2018-07-27T02:27:06.904Z,0
2018-07-27T02:28:07.190Z,0
2018-07-27T02:29:06.930Z,0
2018-07-27T02:30:07.201Z,0
2018-07-27T02:31:07.230Z,0
2018-07-27T02:32:07.565Z,0
2018-07-27T02:33:07.254Z,0
2018-07-27T02:34:06.943Z,0
2018-07-27T02:35:06.950Z,0
2018-07-27T02:36:06.985Z,0
2018-07-27T02:37:06.692Z,0
2018-07-27T02:38:06.972Z,0
2018-07-27T02:39:07.523Z,0
2018-07-27T02:40:08.114Z,0
2018-07-27T02:41:07.326Z,0
2018-07-27T02:42:07.229Z,0
2018-07-27T02:43:07.249Z,0
2018-07-27T02:44:07.221Z,0
2018-07-27T02:45:07.595Z,0
2018-07-27T02:46:07.276Z,0
2018-07-27T02:47:07.232Z,0
2018-07-27T02:48:07.243Z,0
2018-07-27T02:49:07.553Z,0
2018-07-27T02:50:06.704Z,0
2018-07-27T02:51:07.589Z,0
2018-07-27T02:52:06.976Z,0
2018-07-27T02:53:06.984Z,0
2018-07-27T02:54:07.528Z,0
2018-07-27T02:55:07.618Z,0
2018-07-27T02:56:07.392Z,0
2018-07-27T02:57:07.512Z,0
2018-07-27T02:58:07.556Z,0
2018-07-27T02:59:07.543Z,0
2018-07-27T03:00:07.238Z,0
2018-07-27T03:01:07.047Z,0
2018-07-27T03:02:07.264Z,0
2018-07-27T03:03:06.979Z,0
2018-07-27T03:04:06.997Z,0
2018-07-27T03:05:07.265Z,0
2018-07-27T03:06:07.351Z,0
2018-07-27T03:07:07.550Z,0
2018-07-27T03:08:07.553Z,0
2018-07-27T03:09:07.251Z,0
2018-07-27T03:10:07.007Z,0
2018-07-27T03:11:07.362Z,0
2018-07-27T03:12:07.017Z,0
2018-07-27T03:13:07.301Z,0
2018-07-27T03:14:07.291Z,0
2018-07-27T03:15:07.618Z,0
2018-07-27T03:16:07.606Z,0
2018-07-27T03:17:07.040Z,0
2018-07-27T03:18:07.548Z,0
2018-07-27T03:19:07.584Z,0
2018-07-27T03:20:07.292Z,0
2018-07-27T03:21:07.090Z,0
2018-07-27T03:22:07.576Z,0
2018-07-27T03:23:07.562Z,0
2018-07-27T03:24:07.331Z,0
2018-07-27T03:25:07.026Z,0
2018-07-27T03:26:07.069Z,0
2018-07-27T03:27:07.307Z,0
2018-07-27T03:28:07.023Z,0
2018-07-27T03:29:07.323Z,0
2018-07-27T03:30:06.527Z,0
2018-07-27T03:31:07.626Z,0
2018-07-27T03:32:07.376Z,0
2018-07-27T03:33:07.800Z,0
2018-07-27T03:34:07.570Z,0
2018-07-27T03:35:07.586Z,0
2018-07-27T03:36:07.394Z,0
2018-07-27T03:37:07.324Z,0
2018-07-27T03:38:07.458Z,0
2018-07-27T03:39:07.041Z,0
2018-07-27T03:40:07.317Z,0
2018-07-27T03:41:07.583Z,0
2018-07-27T03:42:07.614Z,0
2018-07-27T03:43:07.338Z,5
2018-07-27T03:44:07.085Z,5
2018-07-27T03:45:07.363Z,5
2018-07-27T03:46:07.636Z,5
2018-07-27T03:47:06.812Z,5
2018-07-27T03:48:07.334Z,5
2018-07-27T03:49:07.609Z,5
2018-07-27T03:50:07.330Z,5
2018-07-27T03:51:07.185Z,5
2018-07-27T03:52:07.609Z,10
2018-07-27T03:53:07.377Z,10
2018-07-27T03:54:07.093Z,10
2018-07-27T03:55:06.822Z,10
2018-07-27T03:56:07.375Z,10
2018-07-27T03:57:07.372Z,15
2018-07-27T03:58:07.128Z,15
2018-07-27T03:59:07.363Z,15
2018-07-27T04:00:07.108Z,15
2018-07-27T04:01:07.646Z,20
2018-07-27T04:02:07.676Z,20
2018-07-27T04:03:06.841Z,20
2018-07-27T04:04:07.672Z,20
2018-07-27T04:05:07.628Z,25
2018-07-27T04:06:07.190Z,25
2018-07-27T04:07:07.130Z,25
2018-07-27T04:08:07.408Z,25
2018-07-27T04:09:07.406Z,30
2018-07-27T04:10:07.373Z,30
2018-07-27T04:11:07.434Z,30
2018-07-27T04:12:07.391Z,35
2018-07-27T04:13:06.876Z,35
2018-07-27T04:14:06.948Z,35
2018-07-27T04:15:07.353Z,40
2018-07-27T04:16:07.209Z,40
2018-07-27T04:17:07.430Z,40
2018-07-27T04:18:07.151Z,45
2018-07-27T04:19:06.873Z,45
2018-07-27T04:20:06.919Z,50
2018-07-27T04:21:07.511Z,60
2018-07-27T04:22:07.166Z,65
2018-07-27T04:23:07.442Z,75
2018-07-27T04:24:07.437Z,80
2018-07-27T04:25:07.425Z,80
2018-07-27T04:26:07.423Z,85
2018-07-27T04:27:07.407Z,85
2018-07-27T04:28:07.459Z,85
2018-07-27T04:29:07.425Z,90
2018-07-27T04:30:07.175Z,90
2018-07-27T04:31:06.926Z,95
2018-07-27T04:32:07.170Z,105
2018-07-27T04:33:07.068Z,100
2018-07-27T04:34:07.166Z,105
2018-07-27T04:35:07.204Z,110
2018-07-27T04:36:07.580Z,115
2018-07-27T04:37:07.683Z,120
2018-07-27T04:38:07.446Z,120
2018-07-27T04:39:07.201Z,125
2018-07-27T04:40:07.746Z,130
2018-07-27T04:41:06.975Z,130
2018-07-27T04:42:07.468Z,135
2018-07-27T04:43:07.421Z,135
2018-07-27T04:44:07.487Z,140
2018-07-27T04:45:07.209Z,145
2018-07-27T04:46:07.796Z,155
2018-07-27T04:47:07.506Z,155
2018-07-27T04:48:07.289Z,155
2018-07-27T04:49:07.491Z,160
2018-07-27T04:50:07.584Z,165
2018-07-27T04:51:07.035Z,165
2018-07-27T04:52:07.264Z,170
2018-07-27T04:53:07.250Z,175
2018-07-27T04:54:07.536Z,175
2018-07-27T04:55:06.749Z,180
2018-07-27T04:56:07.253Z,185
2018-07-27T04:57:07.042Z,190
2018-07-27T04:58:07.303Z,190
2018-07-27T04:59:07.267Z,195
2018-07-27T05:00:07.268Z,200
2018-07-27T05:01:07.576Z,205
2018-07-27T05:02:07.760Z,205
2018-07-27T05:03:06.946Z,210
2018-07-27T05:04:07.575Z,210
2018-07-27T05:05:07.798Z,215
2018-07-27T05:06:07.665Z,225
2018-07-27T05:07:07.623Z,220
2018-07-27T05:08:07.331Z,225
2018-07-27T05:09:07.584Z,225
2018-07-27T05:10:07.082Z,230
2018-07-27T05:11:07.109Z,235
2018-07-27T05:12:07.073Z,240
2018-07-27T05:13:07.228Z,245
2018-07-27T05:14:07.611Z,245
2018-07-27T05:15:07.877Z,250
2018-07-27T05:16:07.667Z,260
2018-07-27T05:17:07.891Z,260
2018-07-27T05:18:07.655Z,265
2018-07-27T05:19:07.405Z,265
2018-07-27T05:20:07.664Z,270
2018-07-27T05:21:07.512Z,270
2018-07-27T05:22:07.679Z,270
2018-07-27T05:23:07.389Z,270
2018-07-27T05:24:07.633Z,275
2018-07-27T05:25:07.449Z,275
2018-07-27T05:26:07.978Z,285
2018-07-27T05:27:07.423Z,280
2018-07-27T05:28:07.667Z,285
2018-07-27T05:29:07.155Z,290
2018-07-27T05:30:07.238Z,290
2018-07-27T05:31:07.543Z,290
2018-07-27T05:32:07.712Z,295
2018-07-27T05:33:09.011Z,295
2018-07-27T05:34:07.765Z,295
2018-07-27T05:35:07.514Z,300
2018-07-27T05:36:07.510Z,300
2018-07-27T05:37:07.258Z,305
2018-07-27T05:38:08.048Z,310
2018-07-27T05:39:07.232Z,315
2018-07-27T05:40:07.526Z,315
2018-07-27T05:41:07.611Z,315
2018-07-27T05:42:07.754Z,320
2018-07-27T05:43:07.524Z,320
2018-07-27T05:44:07.503Z,325
2018-07-27T05:45:07.620Z,330
2018-07-27T05:46:07.852Z,330
2018-07-27T05:47:08.736Z,330
2018-07-27T05:48:07.572Z,335
2018-07-27T05:49:07.384Z,335
2018-07-27T05:50:07.870Z,340
2018-07-27T05:51:07.347Z,340
2018-07-27T05:52:07.586Z,345
2018-07-27T05:53:08.110Z,345
2018-07-27T05:54:08.093Z,350
2018-07-27T05:55:07.364Z,350
2018-07-27T05:56:08.161Z,350
2018-07-27T05:57:07.637Z,360
2018-07-27T05:58:07.614Z,355
2018-07-27T05:59:07.609Z,365
2018-07-27T06:00:07.170Z,360
2018-07-27T06:01:07.310Z,360
2018-07-27T06:02:10.435Z,365
2018-07-27T06:03:08.180Z,355
2018-07-27T06:04:08.171Z,360
2018-07-27T06:05:07.653Z,360
2018-07-27T06:06:07.679Z,355
2018-07-27T06:07:07.691Z,355
2018-07-27T06:08:07.937Z,355
2018-07-27T06:09:08.205Z,355
2018-07-27T06:10:07.463Z,355
2018-07-27T06:11:08.332Z,360
2018-07-27T06:12:07.716Z,355
2018-07-27T06:13:07.976Z,355
2018-07-27T06:14:08.249Z,355
2018-07-27T06:15:07.754Z,355
2018-07-27T06:16:08.242Z,355
2018-07-27T06:17:07.488Z,355
2018-07-27T06:18:08.640Z,355
2018-07-27T06:19:07.760Z,360
2018-07-27T06:20:07.792Z,360
2018-07-27T06:21:08.609Z,365
2018-07-27T06:22:08.043Z,370
2018-07-27T06:23:08.031Z,375
2018-07-27T06:24:08.330Z,375
2018-07-27T06:25:07.800Z,375
2018-07-27T06:26:07.350Z,370
2018-07-27T06:27:07.863Z,365
2018-07-27T06:28:08.190Z,365
2018-07-27T06:29:08.355Z,365
2018-07-27T06:30:08.674Z,370
2018-07-27T06:31:08.360Z,370
2018-07-27T06:32:08.124Z,370
2018-07-27T06:33:07.889Z,370
2018-07-27T06:34:07.882Z,370
2018-07-27T06:35:07.872Z,375
2018-07-27T06:36:08.191Z,375
2018-07-27T06:37:07.913Z,375
2018-07-27T06:38:08.159Z,370
2018-07-27T06:39:08.405Z,375
2018-07-27T06:40:08.010Z,370
2018-07-27T06:41:07.795Z,370
2018-07-27T06:42:08.197Z,375
2018-07-27T06:43:08.199Z,375
2018-07-27T06:44:07.452Z,375
2018-07-27T06:45:07.766Z,380
2018-07-27T06:46:08.034Z,375
2018-07-27T06:47:08.008Z,375
2018-07-27T06:48:08.008Z,375
2018-07-27T06:49:08.015Z,380
2018-07-27T06:50:08.214Z,385
2018-07-27T06:51:08.601Z,380
2018-07-27T06:52:08.044Z,380
2018-07-27T06:53:08.044Z,380
2018-07-27T06:54:08.046Z,380
2018-07-27T06:55:08.235Z,380
2018-07-27T06:56:08.105Z,385
2018-07-27T06:57:08.353Z,390
2018-07-27T06:58:08.065Z,385
2018-07-27T06:59:07.581Z,385
2018-07-27T07:00:08.235Z,385
2018-07-27T07:01:08.657Z,385
2018-07-27T07:02:08.113Z,385
2018-07-27T07:03:08.110Z,385
2018-07-27T07:04:07.881Z,380
2018-07-27T07:05:08.541Z,380
2018-07-27T07:06:07.963Z,385
2018-07-27T07:07:07.864Z,380
2018-07-27T07:08:08.411Z,385
2018-07-27T07:09:08.633Z,380
2018-07-27T07:10:08.570Z,380
2018-07-27T07:11:08.786Z,380
2018-07-27T07:12:08.466Z,380
2018-07-27T07:13:08.453Z,375
2018-07-27T07:14:08.476Z,370
2018-07-27T07:15:08.021Z,355
2018-07-27T07:16:07.991Z,340
2018-07-27T07:17:08.484Z,320
2018-07-27T07:18:08.528Z,310
2018-07-27T07:19:08.266Z,300
2018-07-27T07:20:09.071Z,295
2018-07-27T07:21:08.342Z,290
2018-07-27T07:22:08.302Z,290
2018-07-27T07:23:08.290Z,300
2018-07-27T07:24:08.308Z,315
2018-07-27T07:25:08.517Z,330
2018-07-27T07:26:10.870Z,345
2018-07-27T07:27:08.921Z,350
2018-07-27T07:28:07.827Z,355
2018-07-27T07:29:08.349Z,360
2018-07-27T07:30:08.825Z,370
2018-07-27T07:31:08.458Z,370
2018-07-27T07:32:08.100Z,375
2018-07-27T07:33:10.558Z,370
2018-07-27T07:34:08.909Z,370
2018-07-27T07:35:08.585Z,375
2018-07-27T07:36:08.754Z,375
2018-07-27T07:37:08.684Z,375
2018-07-27T07:38:08.943Z,375
2018-07-27T07:39:09.073Z,380
2018-07-27T07:40:08.570Z,380
2018-07-27T07:41:08.533Z,380
2018-07-27T07:42:08.696Z,380
2018-07-27T07:43:08.178Z,380
2018-07-27T07:44:08.723Z,380
2018-07-27T07:45:09.084Z,380
2018-07-27T07:46:08.644Z,375
2018-07-27T07:47:09.012Z,375
2018-07-27T07:48:08.768Z,365
2018-07-27T07:49:08.490Z,370
2018-07-27T07:50:08.594Z,375
2018-07-27T07:51:08.650Z,380
2018-07-27T07:52:08.857Z,380
2018-07-27T07:53:08.280Z,385
2018-07-27T07:54:08.840Z,380
2018-07-27T07:55:08.713Z,380
2018-07-27T07:56:08.582Z,380
2018-07-27T07:57:08.593Z,380
2018-07-27T07:58:09.106Z,380
2018-07-27T07:59:08.872Z,385
2018-07-27T08:00:08.350Z,380
2018-07-27T08:01:08.693Z,375
2018-07-27T08:02:08.373Z,375
2018-07-27T08:03:08.912Z,375
2018-07-27T08:04:12.783Z,375
2018-07-27T08:05:09.131Z,375
2018-07-27T08:06:08.459Z,380
2018-07-27T08:07:08.688Z,380
2018-07-27T08:08:08.975Z,375
2018-07-27T08:09:09.192Z,375
2018-07-27T08:10:09.081Z,375
2018-07-27T08:11:09.115Z,375
2018-07-27T08:12:09.292Z,375
2018-07-27T08:13:08.730Z,375
2018-07-27T08:14:08.993Z,370
2018-07-27T08:15:09.237Z,370
2018-07-27T08:16:08.314Z,370
2018-07-27T08:17:08.533Z,365
2018-07-27T08:18:08.805Z,365
2018-07-27T08:19:08.544Z,365
2018-07-27T08:20:08.713Z,365
2018-07-27T08:21:08.588Z,365
2018-07-27T08:22:08.816Z,365
2018-07-27T08:23:08.839Z,365
2018-07-27T08:24:09.099Z,360
2018-07-27T08:25:09.120Z,360
2018-07-27T08:26:09.055Z,360
2018-07-27T08:27:09.148Z,360
2018-07-27T08:28:08.883Z,360
2018-07-27T08:29:09.168Z,360
2018-07-27T08:30:09.294Z,360
2018-07-27T08:31:08.929Z,360
2018-07-27T08:32:09.456Z,355
2018-07-27T08:33:09.235Z,355
2018-07-27T08:34:08.838Z,355
2018-07-27T08:35:09.019Z,355
2018-07-27T08:36:09.006Z,355
2018-07-27T08:37:09.262Z,355
2018-07-27T08:38:09.264Z,355
2018-07-27T08:39:09.488Z,350
2018-07-27T08:40:08.876Z,350
2018-07-27T08:41:09.061Z,350
2018-07-27T08:42:09.032Z,350
2018-07-27T08:43:09.548Z,350
2018-07-27T08:44:09.068Z,350
2018-07-27T08:45:09.224Z,350
2018-07-27T08:46:08.868Z,350
2018-07-27T08:47:09.643Z,350
2018-07-27T08:48:09.358Z,345
2018-07-27T08:49:09.375Z,345
2018-07-27T08:50:09.187Z,340
2018-07-27T08:51:08.896Z,340
2018-07-27T08:52:09.414Z,335
2018-07-27T08:53:09.682Z,335
2018-07-27T08:54:09.481Z,335
2018-07-27T08:55:09.114Z,335
2018-07-27T08:56:09.214Z,335
2018-07-27T08:57:09.189Z,330
2018-07-27T08:58:09.182Z,330
2018-07-27T08:59:09.502Z,330
2018-07-27T09:00:09.343Z,330
2018-07-27T09:01:09.058Z,330
2018-07-27T09:02:09.789Z,325
2018-07-27T09:03:09.255Z,325
2018-07-27T09:04:09.125Z,320
2018-07-27T09:05:09.206Z,315
2018-07-27T09:06:09.299Z,315
2018-07-27T09:07:09.044Z,315
2018-07-27T09:08:09.341Z,310
2018-07-27T09:09:09.625Z,310
2018-07-27T09:10:11.302Z,305
2018-07-27T09:11:09.723Z,305
2018-07-27T09:12:09.378Z,305
2018-07-27T09:13:09.399Z,305
2018-07-27T09:14:09.152Z,305
2018-07-27T09:15:09.786Z,305
2018-07-27T09:16:09.471Z,305
2018-07-27T09:17:09.382Z,305
2018-07-27T09:18:09.762Z,305
2018-07-27T09:19:09.147Z,305
2018-07-27T09:20:10.241Z,305
2018-07-27T09:21:09.979Z,305
2018-07-27T09:22:09.727Z,305
2018-07-27T09:23:09.497Z,305
2018-07-27T09:24:09.607Z,305
2018-07-27T09:25:11.924Z,305
2018-07-27T09:26:09.791Z,305
2018-07-27T09:27:09.546Z,305
2018-07-27T09:28:09.979Z,305
2018-07-27T09:29:09.993Z,305
2018-07-27T09:30:09.649Z,305
2018-07-27T09:31:09.799Z,305
2018-07-27T09:32:10.070Z,305
2018-07-27T09:33:09.909Z,305
2018-07-27T09:34:09.985Z,305
2018-07-27T09:35:09.927Z,305
2018-07-27T09:36:09.400Z,305
2018-07-27T09:37:09.830Z,305
2018-07-27T09:38:09.609Z,305
2018-07-27T09:39:09.329Z,310
2018-07-27T09:40:09.823Z,310
2018-07-27T09:41:09.660Z,310
2018-07-27T09:42:09.645Z,310
2018-07-27T09:43:09.832Z,310
2018-07-27T09:44:09.929Z,310
2018-07-27T09:45:09.790Z,310
2018-07-27T09:46:10.000Z,310
2018-07-27T09:47:09.671Z,310
2018-07-27T09:48:09.697Z,305
2018-07-27T09:49:09.951Z,305
2018-07-27T09:50:10.282Z,305
2018-07-27T09:51:09.722Z,305
2018-07-27T09:52:09.693Z,305
2018-07-27T09:53:10.237Z,300
2018-07-27T09:54:09.963Z,300
2018-07-27T09:55:09.882Z,305
2018-07-27T09:56:09.483Z,305
2018-07-27T09:57:09.976Z,305
2018-07-27T09:58:10.211Z,305
2018-07-27T09:59:10.005Z,305
2018-07-27T10:00:10.208Z,305
2018-07-27T10:01:09.330Z,305
2018-07-27T10:02:10.045Z,305
2018-07-27T10:03:09.513Z,300
2018-07-27T10:04:10.276Z,300
2018-07-27T10:05:10.562Z,300
2018-07-27T10:06:10.112Z,300
2018-07-27T10:07:10.303Z,300
2018-07-27T10:08:10.299Z,295
2018-07-27T10:09:10.062Z,300
2018-07-27T10:10:10.198Z,295
2018-07-27T10:11:10.286Z,295
2018-07-27T10:12:09.811Z,290
2018-07-27T10:13:09.816Z,290
2018-07-27T10:14:10.043Z,285
2018-07-27T10:15:11.123Z,285
2018-07-27T10:16:09.664Z,290
2018-07-27T10:17:10.111Z,290
2018-07-27T10:18:10.127Z,290
2018-07-27T10:19:09.682Z,285
2018-07-27T10:20:10.149Z,285
2018-07-27T10:21:09.503Z,285
2018-07-27T10:22:09.913Z,285
2018-07-27T10:23:10.155Z,285
2018-07-27T10:24:10.021Z,280
2018-07-27T10:25:10.022Z,280
2018-07-27T10:26:10.188Z,280
2018-07-27T10:27:10.180Z,280
2018-07-27T10:28:10.475Z,285
2018-07-27T10:29:10.188Z,285
2018-07-27T10:30:10.314Z,285
2018-07-27T10:31:10.097Z,285
2018-07-27T10:32:09.965Z,285
2018-07-27T10:33:09.952Z,290
2018-07-27T10:34:10.215Z,295
2018-07-27T10:35:10.538Z,295
2018-07-27T10:36:10.241Z,295
2018-07-27T10:37:10.244Z,290
2018-07-27T10:38:10.255Z,290
2018-07-27T10:39:10.510Z,290
2018-07-27T10:40:10.321Z,285
2018-07-27T10:41:10.574Z,290
2018-07-27T10:42:10.286Z,285
2018-07-27T10:43:10.305Z,280
2018-07-27T10:44:10.292Z,275
2018-07-27T10:45:10.040Z,275
2018-07-27T10:46:10.351Z,275
2018-07-27T10:47:10.065Z,275
2018-07-27T10:48:10.085Z,280
2018-07-27T10:49:10.084Z,280
2018-07-27T10:50:10.448Z,285
2018-07-27T10:51:10.385Z,290
2018-07-27T10:52:10.104Z,285
2018-07-27T10:53:10.370Z,285
2018-07-27T10:54:10.635Z,290
2018-07-27T10:55:10.141Z,270
2018-07-27T10:56:10.459Z,290
2018-07-27T10:57:10.115Z,265
2018-07-27T10:58:10.194Z,285
2018-07-27T10:59:10.476Z,285
2018-07-27T11:00:10.475Z,285
2018-07-27T11:01:10.302Z,290
2018-07-27T11:02:10.173Z,290
2018-07-27T11:03:10.422Z,290
2018-07-27T11:04:10.182Z,285
2018-07-27T11:05:10.224Z,285
2018-07-27T11:06:10.228Z,285
2018-07-27T11:07:10.454Z,285
2018-07-27T11:08:10.717Z,285
2018-07-27T11:09:10.462Z,290
2018-07-27T11:10:09.761Z,290
2018-07-27T11:11:10.261Z,290
2018-07-27T11:12:10.483Z,285
2018-07-27T11:13:09.972Z,280
2018-07-27T11:14:10.240Z,280
2018-07-27T11:15:10.016Z,280
2018-07-27T11:16:10.283Z,280
2018-07-27T11:17:10.297Z,280
2018-07-27T11:18:10.538Z,285
2018-07-27T11:19:10.301Z,285
2018-07-27T11:20:10.380Z,285
2018-07-27T11:21:10.554Z,285
2018-07-27T11:22:10.299Z,285
2018-07-27T11:23:10.819Z,285
2018-07-27T11:24:10.349Z,280
2018-07-27T11:25:10.656Z,285
2018-07-27T11:26:10.389Z,275
2018-07-27T11:27:10.856Z,275
2018-07-27T11:28:10.106Z,270
2018-07-27T11:29:10.882Z,275
2018-07-27T11:30:10.515Z,275
2018-07-27T11:31:10.277Z,280
2018-07-27T11:32:10.683Z,280
2018-07-27T11:33:10.914Z,270
2018-07-27T11:34:10.713Z,260
2018-07-27T11:35:10.292Z,265
2018-07-27T11:36:11.011Z,205
2018-07-27T11:37:11.405Z,250
2018-07-27T11:38:10.437Z,275
2018-07-27T11:39:10.716Z,275
2018-07-27T11:40:10.612Z,280
2018-07-27T11:41:10.506Z,255
2018-07-27T11:42:10.789Z,255
2018-07-27T11:43:10.200Z,260
2018-07-27T11:44:10.205Z,290
2018-07-27T11:45:10.974Z,290
2018-07-27T11:46:10.853Z,290
2018-07-27T11:47:11.015Z,275
2018-07-27T11:48:10.248Z,250
2018-07-27T11:49:10.784Z,265
2018-07-27T11:50:10.722Z,240
2018-07-27T11:51:10.422Z,280
2018-07-27T11:52:10.021Z,295
2018-07-27T11:53:10.549Z,300
2018-07-27T11:54:10.929Z,315
2018-07-27T11:55:10.839Z,330
2018-07-27T11:56:10.602Z,335
2018-07-27T11:57:10.593Z,340
2018-07-27T11:58:10.573Z,340
2018-07-27T11:59:10.574Z,345
2018-07-27T12:00:10.858Z,350
2018-07-27T12:01:10.879Z,350
2018-07-27T12:02:10.863Z,350
2018-07-27T12:03:10.897Z,355
2018-07-27T12:04:10.640Z,355
2018-07-27T12:05:10.534Z,360
2018-07-27T12:06:13.284Z,365
2018-07-27T12:07:11.215Z,365
2018-07-27T12:08:10.124Z,320
2018-07-27T12:09:10.727Z,360
2018-07-27T12:10:11.187Z,320
2018-07-27T12:11:10.697Z,330
2018-07-27T12:12:11.002Z,370
2018-07-27T12:13:11.022Z,380
2018-07-27T12:14:11.347Z,370
2018-07-27T12:15:12.209Z,360
2018-07-27T12:16:10.743Z,370
2018-07-27T12:17:10.972Z,370
2018-07-27T12:18:10.450Z,385
2018-07-27T12:19:10.455Z,385
2018-07-27T12:20:10.950Z,370
2018-07-27T12:21:11.644Z,350
2018-07-27T12:22:10.492Z,370
2018-07-27T12:23:11.030Z,365
2018-07-27T12:24:10.770Z,365
2018-07-27T12:25:11.085Z,310
2018-07-27T12:26:11.055Z,310
2018-07-27T12:27:11.345Z,310
2018-07-27T12:28:10.797Z,300
2018-07-27T12:29:10.814Z,290
2018-07-27T12:30:10.825Z,290
2018-07-27T12:31:11.101Z,290
2018-07-27T12:32:10.821Z,265
2018-07-27T12:33:11.098Z,285
2018-07-27T12:34:10.580Z,290
2018-07-27T12:35:11.631Z,295
2018-07-27T12:36:10.615Z,250
2018-07-27T12:37:11.128Z,245
2018-07-27T12:38:11.128Z,245
2018-07-27T12:39:11.546Z,250
2018-07-27T12:40:11.200Z,245
2018-07-27T12:41:11.219Z,245
2018-07-27T12:42:10.730Z,240
2018-07-27T12:43:10.906Z,240
2018-07-27T12:44:11.188Z,240
2018-07-27T12:45:11.050Z,240
2018-07-27T12:46:11.294Z,245
2018-07-27T12:47:11.216Z,250
2018-07-27T12:48:11.501Z,260
2018-07-27T12:49:11.215Z,260
2018-07-27T12:50:11.303Z,255
2018-07-27T12:51:11.356Z,250
2018-07-27T12:52:11.372Z,250
2018-07-27T12:53:10.973Z,250
2018-07-27T12:54:11.233Z,250
2018-07-27T12:55:11.156Z,240
2018-07-27T12:56:11.292Z,230
2018-07-27T12:57:11.259Z,225
2018-07-27T12:58:11.269Z,225
2018-07-27T12:59:11.138Z,225
2018-07-27T13:00:11.191Z,220
2018-07-27T13:01:10.853Z,225
2018-07-27T13:02:10.782Z,220
2018-07-27T13:03:11.035Z,220
2018-07-27T13:04:11.105Z,215
2018-07-27T13:05:11.386Z,215
2018-07-27T13:06:11.388Z,210
2018-07-27T13:07:11.373Z,210
2018-07-27T13:08:10.837Z,205
2018-07-27T13:09:11.595Z,205
2018-07-27T13:10:11.546Z,200
2018-07-27T13:11:10.896Z,200
2018-07-27T13:12:10.859Z,200
2018-07-27T13:13:11.464Z,200
2018-07-27T13:14:10.862Z,200
2018-07-27T13:15:11.301Z,200
2018-07-27T13:16:11.717Z,200
2018-07-27T13:17:11.162Z,200
2018-07-27T13:18:11.415Z,200
2018-07-27T13:19:11.663Z,195
2018-07-27T13:20:11.353Z,195
2018-07-27T13:21:11.407Z,195
2018-07-27T13:22:11.530Z,195
2018-07-27T13:23:11.428Z,200
2018-07-27T13:24:11.437Z,200
2018-07-27T13:25:11.956Z,205
2018-07-27T13:26:30.571Z,210
2018-07-27T13:27:11.197Z,210
2018-07-27T13:28:10.955Z,210
2018-07-27T13:29:11.529Z,210
2018-07-27T13:30:11.275Z,215
2018-07-27T13:31:11.291Z,215
2018-07-27T13:32:10.983Z,220
2018-07-27T13:33:11.253Z,235
2018-07-27T13:34:11.499Z,255
2018-07-27T13:35:11.280Z,240
2018-07-27T13:36:10.812Z,240
2018-07-27T13:37:12.142Z,225
2018-07-27T13:38:11.257Z,225
2018-07-27T13:39:11.026Z,235
2018-07-27T13:40:11.669Z,230
2018-07-27T13:41:11.117Z,250
2018-07-27T13:42:11.553Z,255
2018-07-27T13:43:11.551Z,250
2018-07-27T13:44:11.334Z,235
2018-07-27T13:45:11.539Z,240
2018-07-27T13:46:11.622Z,230
2018-07-27T13:47:11.640Z,235
2018-07-27T13:48:11.351Z,225
2018-07-27T13:49:11.530Z,250
2018-07-27T13:50:11.675Z,260
2018-07-27T13:51:11.399Z,255
2018-07-27T13:52:11.623Z,255
2018-07-27T13:53:11.876Z,255
2018-07-27T13:54:11.363Z,255
2018-07-27T13:55:11.248Z,255
2018-07-27T13:56:11.687Z,250
2018-07-27T13:57:11.632Z,255
2018-07-27T13:58:11.412Z,250
2018-07-27T13:59:11.915Z,250
2018-07-27T14:00:11.777Z,250
2018-07-27T14:01:11.723Z,250
2018-07-27T14:02:11.677Z,250
2018-07-27T14:03:11.427Z,250